< < Back
Terminal Aerodrome Forecast


Current Version              Previous Versions:   1  2  3  4  5  6  7  8  9  

Terminal Aerodrome Forecast

558
FTUS42 KJAX 271200 AAB
TAFJAX
TAF AMD
KJAX 271200Z 2712/2812 34006KT 3SM BR SCT003
     FM271300 32006KT P6SM SCT035
     FM271900 11008KT P6SM SCT050
     FM280000 VRB04KT P6SM FEW025=

Latest METAR

256
SAUS80 KWBC 271200
MTRJAX
METAR KJAX 271156Z 33005KT 4SM BR SCT003 BKN250 21/21 A2993 RMK AO2
SLP136 T02110211 10222 20206 51006


USA.gov is the U.S. government's official web portal to all federal, state and local government web resources and services.